Terminal Aerodrome Forecast
Issued by NWS Omaha/Valley, NE

Home | Current Version | Previous Version | Text Only | Print | Product List | Glossary Off
Versions: 1 2 3 4 5 6 7 8 9 10 11 12 13 14 15 16 17 18 19 20 21 22 23 24 25 26 27 28 29 30 31 32 33 34 35 36 37 38 39 40 41

000
FTUS43 KOAX 240520
TAFOFK
TAF
KOFK 240520Z 2406/2506 16014KT P6SM OVC050
     FM241100 16014KT P6SM OVC025
     FM241400 15012KT P6SM OVC015
      TEMPO 2414/2418 3SM -SHRA BR OVC008
     FM242000 15010KT P6SM BKN025
     FM250200 11008KT 5SM -RA BR OVC015=

USA.gov is the U.S. government's official web portal to all federal, state and local government web resources and services.